• Join FlightAware (Why Join?)
  • Login
  • US Flag 
01:50PM EDT


 

Airport Tracker/Info


-or-


 

Live Flight TrackerFlight Track Log ✈ TAM3515 ✈ 02-May-2013 ✈ SBBE / BEL - SBFZ / FOR

Flight Track Log - Related Links

Times and Time Zones

All times are in EDT time to prevent confusion due to time zone crossing. See the TAM3515 flight status page for this flight to view local times or setup timezone preferences in your user account.

Time Position Orientation Groundspeed Altitude Reporting Facility
EDT Latitude Longitude Course Direction KTS MPH feet Rate Location/Type
03:42AM -2.0187 -45.8563 104° East  Level Estimated
03:43AM -2.0452 -45.7470 104° East  Level Estimated
03:44AM -2.0718 -45.6378 104° East  Level Estimated
03:45AM -2.0983 -45.5286 104° East  Level Estimated
03:46AM -2.1248 -45.4194 104° East  Level Estimated
03:47AM -2.1514 -45.3102 104° East  Level Estimated
03:48AM -2.1779 -45.2009 104° East  Level Estimated
03:49AM -2.2044 -45.0917 104° East  Level Estimated
03:50AM -2.2309 -44.9825 104° East  Level Estimated
03:51AM -2.2574 -44.8732 104° East  Level Estimated
03:52AM -2.2839 -44.7640 104° East  Level Estimated
03:53AM -2.3104 -44.6548 104° East  Level Estimated
03:54AM -2.3368 -44.5455 104° East  Level Estimated
03:55AM -2.3633 -44.4362 104° East  Level Estimated
03:56AM -2.3898 -44.3270 104° East  Level Estimated
03:57AM -2.4162 -44.2177 104° East  Level Estimated
03:58AM -2.4427 -44.1085 104° East  Level Estimated
03:59AM -2.4691 -43.9992 104° East  Level Estimated
04:00AM -2.4955 -43.8899 104° East  Level Estimated
04:01AM -2.5219 -43.7806 104° East  Level Estimated
04:02AM -2.5483 -43.6713 104° East  Level Estimated
04:03AM -2.5747 -43.5620 104° East  Level Estimated
04:04AM -2.6011 -43.4528 104° East  Level Estimated
04:05AM -2.6275 -43.3435 104° East  Level Estimated
04:06AM -2.6538 -43.2342 104° East  Level Estimated
04:07AM -2.6802 -43.1249 104° East  Level Estimated
04:08AM -2.7065 -43.0155 104° East  Level Estimated
04:09AM -2.7329 -42.9062 104° East  Level Estimated
04:10AM -2.7592 -42.7969 104° East  Level Estimated
04:11AM -2.7855 -42.6876 104° East  Level Estimated
04:12AM -2.8118 -42.5782 104° East  Level Estimated
04:13AM -2.8381 -42.4689 104° East  Level Estimated
04:14AM -2.8644 -42.3596 104° East  Level Estimated
04:15AM -2.8906 -42.2502 104° East  Level Estimated
04:16AM -2.9169 -42.1409 104° East  Level Estimated
04:17AM -2.9432 -42.0315 104° East  Level Estimated
04:18AM -2.9694 -41.9221 104° East  Level Estimated
04:19AM -2.9956 -41.8128 104° East  Level Estimated
04:20AM -3.0218 -41.7034 104° East  Level Estimated
04:21AM -3.0480 -41.5940 103° East  Level Estimated
04:22AM -3.0742 -41.4846 103° East  Level Estimated
04:23AM -3.1004 -41.3753 103° East  Level Estimated
04:24AM -3.1266 -41.2659 103° East  Level Estimated
04:25AM -3.1528 -41.1565 103° East  Level Estimated
04:26AM -3.1789 -41.0471 103° East  Level Estimated
04:27AM -3.2051 -40.9376 103° East  Level Estimated
04:28AM -3.2312 -40.8282 103° East  Level Estimated
04:29AM -3.2573 -40.7188 103° East  Level Estimated
04:30AM -3.2834 -40.6094 103° East  Level Estimated
04:31AM -3.3095 -40.5000 103° East  Level Estimated
04:32AM -3.3356 -40.3905 103° East  Level Estimated
04:33AM -3.3617 -40.2811 103° East  Level Estimated
04:34AM -3.3877 -40.1716 103° East  Level Estimated
04:35AM -3.4138 -40.0622 103° East  Level Estimated
04:36AM -3.4398 -39.9527 103° East  Level Estimated
04:37AM -3.4658 -39.8432 103° East  Level Estimated
04:38AM -3.4918 -39.7338 103° East  Level Estimated
04:39AM -3.5178 -39.6243 103° East  Level Estimated
04:40AM -3.5438 -39.5148 103° East  Level Estimated
04:41AM -3.5698 -39.4053 103° East  Level Estimated
04:42AM -3.5958 -39.2958 103° East  Level Estimated
04:43AM -3.6217 -39.1863 103° East  Level Estimated
04:44AM -3.6476 -39.0768 103° East  Level Estimated
04:45AM -3.6735 -38.9673 103° East  Level Estimated
04:46AM -3.6995 -38.8577 103° East  Level Estimated
04:47AM -3.7253 -38.7482 103° East  Level Estimated
04:48AM -3.7512 -38.6387 103° East  Level Estimated
04:49AM -3.7763 -38.5326 103° East  Level Estimated
04:50AM -3.7763 -38.5326 127° Southeast  Level Estimated
04:51AM -3.7763 -38.5326 127° Southeast  Level Estimated
04:52AM -3.7763 -38.5326 127° Southeast  Level Estimated
04:53AM -3.7763 -38.5326 127° Southeast  Level Estimated
04:54AM -3.7763 -38.5326 127° Southeast  Level Estimated
04:55AM -3.7763 -38.5326 127° Southeast  Level Estimated
04:56AM -3.7763 -38.5326 127° Southeast  Level Estimated
04:57AM -3.7763 -38.5326 127° Southeast  Level Estimated
04:58AM -3.7763 -38.5326 127° Southeast  Level Estimated
04:59AM -3.7763 -38.5326 127° Southeast  Level Estimated
05:00AM -3.7763 -38.5326 127° Southeast  Level Estimated
05:01AM -3.7763 -38.5326 127° Southeast  Level Estimated
05:02AM -3.7763 -38.5326 127° Southeast  Level Estimated
05:03AM -3.7763 -38.5326 127° Southeast  Level Estimated
05:04AM -3.7763 -38.5326 127° Southeast  Level Estimated
05:05AM -3.7763 -38.5326 127° Southeast  Level Estimated